Whitestone, New York
Current Conditions -  °F | °C
As of 4:51 AM on Thursday 27 Nov 2014 (Local Time) from KLGA Reporting Station
Overcast Overcast  
Wind Chill: 30°   Ceiling: 4300
Heat Index: 36°   Visibility: 10mi
Dew Point: 30°   Wind: 8mph
Humidity: 79%   Direction: 310°NW
Pressure: 29.94"   Gusts: NA
Location:  40.79°N, 73.82°W
Report Text: KLGA 270951Z 31007KT 10SM OVC043 02/M01 A2994 RMK AO2 SLP137 T00221011
Loading
Personal Weather Stations






























Interactive Weather Map New forecast layout! Learn more

10-Day Weather Forecast

Advertisements
Track Severe Weather on mobile